Time;durP1;ratioP1;P1;durP2;ratioP2;P2;SDS_P1;SDS_P2;PMS_P1;PMS_P2;Temp;Humidity;BMP_temperature;BMP_pressure;BME280_temperature;BME280_humidity;BME280_pressure;Samples;Min_cycle;Max_cycle;Signal;HPM_P1;HPM_P2
2022/10/20 00:01:22;;;;;;;15.80;10.30;;;;;;;13.45;96.35;98492.28;5159630;23;20625;-89
2022/10/20 00:03:27;;;;;;;14.87;9.70;;;;;;;13.42;96.62;98483.84;5162313;22;21316;-91
2022/10/20 00:05:30;;;;;;;14.13;10.50;;;;;;;13.41;96.89;98490.00;5138694;23;20619;-92
2022/10/20 00:07:33;;;;;;;16.60;9.90;;;;;;;13.39;96.91;98486.69;5137624;23;20623;-91
2022/10/20 00:09:37;;;;;;;13.80;10.60;;;;;;;13.36;96.48;98489.53;5162205;23;20584;-92
2022/10/20 00:11:40;;;;;;;14.93;10.87;;;;;;;13.36;97.22;98486.91;5137802;23;20577;-92
2022/10/20 00:13:44;;;;;;;13.80;10.20;;;;;;;13.35;96.50;98474.75;5136529;23;21214;-91
2022/10/20 00:15:51;;;;;;;15.10;10.57;;;;;;;13.33;96.75;98468.78;5162844;23;20560;-91
2022/10/20 00:17:54;;;;;;;15.53;11.57;;;;;;;13.31;96.88;98468.06;5165214;22;20556;-91
2022/10/20 00:19:57;;;;;;;15.33;11.20;;;;;;;13.28;96.73;98457.81;5136836;23;21405;-89
2022/10/20 00:22:00;;;;;;;15.07;11.27;;;;;;;13.24;96.81;98451.97;5163644;22;20580;-91
2022/10/20 00:24:03;;;;;;;16.20;11.40;;;;;;;13.19;97.22;98448.00;5162289;23;20664;-91
2022/10/20 00:26:10;;;;;;;16.33;9.93;;;;;;;13.15;96.98;98448.34;5162817;23;20661;-92
2022/10/20 00:28:13;;;;;;;20.57;11.20;;;;;;;13.06;97.39;98447.22;5162611;23;20573;-89
2022/10/20 00:30:16;;;;;;;16.00;10.00;;;;;;;13.04;97.97;98441.25;5162777;23;20604;-90
2022/10/20 00:32:24;;;;;;;15.93;10.67;;;;;;;13.05;97.95;98448.19;5137368;23;20580;-92
2022/10/20 00:34:27;;;;;;;15.30;11.00;;;;;;;13.03;97.97;98441.38;5162230;23;20577;-92
2022/10/20 00:36:30;;;;;;;14.90;11.00;;;;;;;13.02;97.90;98444.94;5161812;23;20567;-91
2022/10/20 00:38:34;;;;;;;14.80;11.00;;;;;;;13.00;98.24;98442.41;5137243;23;20970;-91
2022/10/20 00:40:37;;;;;;;15.33;11.17;;;;;;;13.02;97.40;98440.56;5160971;23;21014;-90
2022/10/20 00:42:45;;;;;;;15.20;10.80;;;;;;;13.03;97.73;98441.38;5137586;23;20683;-90
2022/10/20 00:44:55;;;;;;;15.20;10.20;;;;;;;13.02;98.06;98440.56;5136522;23;20581;-90
2022/10/20 00:46:58;;;;;;;14.87;10.40;;;;;;;13.03;97.33;98439.59;5161524;23;20555;-88
2022/10/20 00:49:04;;;;;;;16.87;10.50;;;;;;;13.03;97.53;98446.63;5136630;23;20577;-90
2022/10/20 00:51:07;;;;;;;15.50;10.43;;;;;;;13.00;97.06;98442.41;5163051;23;20581;-91
2022/10/20 00:53:11;;;;;;;21.90;12.33;;;;;;;13.00;96.85;98442.41;5137819;23;20581;-91
2022/10/20 00:55:18;;;;;;;16.70;10.97;;;;;;;13.01;96.64;98443.28;5136891;23;20577;-90
2022/10/20 00:57:21;;;;;;;15.20;11.20;;;;;;;13.03;97.76;98441.38;5138055;23;20912;-90
2022/10/20 00:59:27;;;;;;;13.20;10.30;;;;;;;12.99;96.73;98435.53;5163776;23;20585;-91
2022/10/20 01:01:31;;;;;;;15.17;10.90;;;;;;;12.97;97.26;98433.97;5162257;23;20673;-90
2022/10/20 01:03:38;;;;;;;14.00;10.70;;;;;;;12.97;96.73;98432.16;5135697;23;20694;-91
2022/10/20 01:11:13;;;;;;;16.77;10.33;;;;;;;12.89;97.80;98415.38;5164243;22;20612;-93
2022/10/20 01:13:20;;;;;;;14.57;9.60;;;;;;;12.93;96.62;98417.66;5162600;23;20926;-92
2022/10/20 01:15:28;;;;;;;14.33;11.10;;;;;;;12.93;96.48;98401.94;5186414;22;20647;-93
2022/10/20 01:17:40;;;;;;;16.70;10.53;;;;;;;12.90;96.41;98403.94;5163827;23;21025;-95
2022/10/20 01:20:24;;;;;;;14.90;11.10;;;;;;;12.87;97.32;98391.06;5137802;23;20984;-93
2022/10/20 01:22:37;;;;;;;14.93;11.07;;;;;;;12.84;97.06;98389.50;5116270;23;20690;-94
2022/10/20 01:24:50;;;;;;;15.60;10.80;;;;;;;12.79;96.95;98390.75;5137814;23;20901;-94
2022/10/20 01:27:20;;;;;;;17.70;11.23;;;;;;;12.77;96.63;98380.41;5163453;23;20560;-93
2022/10/20 01:29:27;;;;;;;15.00;10.80;;;;;;;12.77;97.54;98385.63;5162732;23;20611;-93
2022/10/20 01:31:35;;;;;;;15.27;10.60;;;;;;;12.80;96.98;98380.16;5139233;23;21099;-93
2022/10/20 01:33:42;;;;;;;14.63;10.73;;;;;;;12.77;96.74;98372.53;5137460;23;20603;-93
2022/10/20 01:35:53;;;;;;;15.87;11.20;;;;;;;12.75;97.01;98366.59;5137966;23;20600;-92
2022/10/20 01:38:03;;;;;;;17.17;11.40;;;;;;;12.71;96.88;98365.13;5163968;23;20666;-93
2022/10/20 01:40:11;;;;;;;13.47;10.23;;;;;;;12.71;97.11;98367.75;5164392;22;20582;-94
2022/10/20 01:42:18;;;;;;;15.93;10.93;;;;;;;12.72;97.00;98369.44;5163352;23;21149;-92
2022/10/20 01:44:25;;;;;;;17.63;11.60;;;;;;;12.70;97.39;98360.00;5163333;23;20576;-93
2022/10/20 01:46:29;;;;;;;14.30;10.30;;;;;;;12.72;97.25;98361.56;5138237;23;20660;-93
2022/10/20 01:48:33;;;;;;;17.07;10.00;;;;;;;12.72;96.94;98363.38;5162984;23;21103;-92
2022/10/20 01:50:37;;;;;;;15.67;10.87;;;;;;;12.74;96.98;98364.09;5163469;23;20581;-93
2022/10/20 01:52:40;;;;;;;14.20;10.60;;;;;;;12.79;97.40;98359.34;5163038;22;20604;-92
2022/10/20 01:54:43;;;;;;;15.40;10.20;;;;;;;12.80;97.17;98364.47;5162468;23;20587;-93
2022/10/20 01:56:54;;;;;;;20.63;11.73;;;;;;;12.84;96.77;98365.97;5162443;23;20631;-91
2022/10/20 01:59:25;;;;;;;15.77;10.63;;;;;;;12.89;97.07;98355.16;5136122;23;20584;-92
2022/10/20 02:01:45;;;;;;;16.93;11.10;;;;;;;12.92;97.38;98355.75;5157219;22;20619;-93
2022/10/20 02:03:52;;;;;;;14.87;10.80;;;;;;;12.94;96.96;98363.50;5138000;23;20581;-92
2022/10/20 02:06:03;;;;;;;14.73;10.50;;;;;;;12.96;96.38;98361.59;5138390;23;20588;-93
2022/10/20 02:08:11;;;;;;;16.40;11.30;;;;;;;12.98;95.97;98355.31;5126906;23;20629;-92
2022/10/20 02:10:18;;;;;;;15.60;10.80;;;;;;;12.98;96.11;98349.25;5139070;23;20584;-92
2022/10/20 02:12:24;;;;;;;15.83;11.30;;;;;;;12.99;96.22;98341.28;5112851;23;20617;-90
2022/10/20 02:14:28;;;;;;;21.17;12.40;;;;;;;13.01;96.30;98346.41;5113625;23;20589;-91
2022/10/20 02:16:34;;;;;;;14.03;10.60;;;;;;;13.02;96.75;98338.44;5114060;23;20571;-91
2022/10/20 02:18:42;;;;;;;14.00;10.90;;;;;;;13.03;96.36;98341.88;5139444;23;20586;-91
2022/10/20 02:20:47;;;;;;;16.33;12.10;;;;;;;13.05;96.32;98345.22;5112902;23;20597;-90
2022/10/20 02:22:51;;;;;;;15.30;11.50;;;;;;;13.06;95.92;98339.84;5112937;23;20615;-89
2022/10/20 02:24:54;;;;;;;14.80;10.70;;;;;;;13.06;96.10;98337.22;5138913;23;21135;-91
2022/10/20 02:26:59;;;;;;;15.60;10.73;;;;;;;13.04;95.48;98328.66;5137974;23;21435;-91
2022/10/20 02:29:06;;;;;;;14.40;10.60;;;;;;;13.05;95.14;98332.97;5113647;23;20583;-91
2022/10/20 02:31:09;;;;;;;13.93;9.77;;;;;;;13.07;95.21;98335.47;5112924;23;20639;-91
2022/10/20 02:33:14;;;;;;;16.00;10.70;;;;;;;13.09;94.85;98338.81;5138579;23;20577;-91
2022/10/20 02:35:19;;;;;;;12.73;9.63;;;;;;;13.08;95.28;98340.59;5138597;23;21124;-90
2022/10/20 02:37:22;;;;;;;15.97;10.77;;;;;;;13.07;94.60;98338.09;5114101;23;20631;-91
2022/10/20 02:39:25;;;;;;;13.47;10.13;;;;;;;13.08;95.60;98327.50;5113672;23;20582;-91
2022/10/20 02:41:29;;;;;;;18.83;11.20;;;;;;;13.08;95.25;98319.66;5113502;23;20684;-90
2022/10/20 02:43:32;;;;;;;14.30;9.90;;;;;;;13.05;94.31;98311.16;5113568;23;20579;-91
2022/10/20 02:45:36;;;;;;;13.63;10.00;;;;;;;13.03;95.45;98311.28;5110361;23;20583;-90
2022/10/20 02:47:39;;;;;;;15.30;10.17;;;;;;;13.02;95.47;98309.63;5138149;23;20581;-89
2022/10/20 02:49:43;;;;;;;15.87;9.97;;;;;;;12.98;95.86;98307.34;5137697;23;20573;-92
2022/10/20 02:51:46;;;;;;;15.30;10.20;;;;;;;12.95;95.01;98305.78;5112760;23;20586;-89
2022/10/20 02:53:49;;;;;;;15.20;10.80;;;;;;;12.94;95.07;98308.53;5138417;23;20578;-91
2022/10/20 02:55:52;;;;;;;17.43;11.07;;;;;;;12.93;95.39;98314.69;5162063;23;20627;-89
2022/10/20 02:57:56;;;;;;;12.40;9.40;;;;;;;12.91;95.27;98314.81;5162704;23;20651;-90
2022/10/20 02:59:59;;;;;;;14.63;9.77;;;;;;;12.91;95.10;98313.97;5113091;23;21205;-90
2022/10/20 03:02:02;;;;;;;14.93;9.70;;;;;;;12.91;96.22;98317.41;5137330;23;20696;-91
2022/10/20 03:04:05;;;;;;;15.60;10.77;;;;;;;12.94;95.27;98325.06;5137311;23;20577;-90
2022/10/20 03:06:11;;;;;;;13.10;10.20;;;;;;;12.95;96.20;98324.13;5138380;23;20582;-90
2022/10/20 03:08:15;;;;;;;13.97;10.30;;;;;;;12.95;94.75;98315.44;5111763;23;20681;-91
2022/10/20 03:10:18;;;;;;;15.50;11.30;;;;;;;12.95;96.08;98323.28;5137304;23;20620;-91
2022/10/20 03:12:21;;;;;;;16.20;11.03;;;;;;;12.95;94.97;98318.06;5136738;23;21166;-90
2022/10/20 03:14:24;;;;;;;15.60;11.07;;;;;;;12.94;95.99;98308.53;5137908;23;20586;-89
2022/10/20 03:16:27;;;;;;;16.17;11.37;;;;;;;12.89;96.15;98308.03;5137002;23;20579;-90
2022/10/20 03:18:30;;;;;;;14.57;10.67;;;;;;;12.88;96.04;98301.94;5111910;23;21106;-90
2022/10/20 03:20:33;;;;;;;14.50;11.17;;;;;;;12.88;95.59;98307.19;5139062;23;20566;-90
2022/10/20 03:22:37;;;;;;;13.53;10.10;;;;;;;12.89;95.79;98310.66;5112436;23;21171;-90
2022/10/20 03:24:41;;;;;;;15.07;11.10;;;;;;;12.91;96.39;98311.34;5136054;23;20580;-90
2022/10/20 03:26:43;;;;;;;13.53;10.57;;;;;;;12.91;95.69;98317.41;5137389;23;20581;-90
2022/10/20 03:28:47;;;;;;;17.90;11.30;;;;;;;12.91;96.38;98317.41;5112250;23;20902;-90
2022/10/20 03:30:50;;;;;;;14.93;10.10;;;;;;;12.89;95.92;98308.03;5137491;23;20574;-92
2022/10/20 03:32:53;;;;;;;16.40;11.17;;;;;;;12.92;96.63;98319.09;5137854;23;20613;-90
2022/10/20 03:34:56;;;;;;;18.03;11.00;;;;;;;12.93;95.46;98317.31;5113224;23;20594;-90
2022/10/20 03:36:59;;;;;;;15.27;10.97;;;;;;;12.94;96.37;98326.84;5139571;23;20577;-90
2022/10/20 03:39:04;;;;;;;19.97;12.70;;;;;;;12.96;95.83;98324.94;5137663;23;20590;-90
2022/10/20 03:41:07;;;;;;;14.00;11.10;;;;;;;12.97;95.11;98337.09;5113034;23;20677;-89
2022/10/20 03:43:10;;;;;;;18.10;12.50;;;;;;;12.96;96.17;98328.41;5137375;23;20672;-90
2022/10/20 03:45:13;;;;;;;16.40;11.83;;;;;;;12.93;95.10;98323.41;5138114;23;20601;-90
2022/10/20 03:47:20;;;;;;;14.70;10.90;;;;;;;12.89;96.67;98324.56;5137996;23;20585;-90
2022/10/20 03:49:23;;;;;;;16.53;11.83;;;;;;;12.89;95.45;98316.72;5138298;23;20585;-90
2022/10/20 03:51:26;;;;;;;18.27;11.60;;;;;;;12.86;96.38;98316.94;5139549;23;20632;-90
2022/10/20 03:53:30;;;;;;;19.73;11.43;;;;;;;12.82;96.02;98320.75;5113318;23;20941;-91
2022/10/20 03:55:34;;;;;;;16.00;11.13;;;;;;;12.83;95.98;98318.97;5135825;23;20617;-90
2022/10/20 03:57:37;;;;;;;16.87;12.10;;;;;;;12.84;97.01;98321.47;5135939;23;20647;-89
2022/10/20 03:59:41;;;;;;;15.47;11.37;;;;;;;12.81;96.02;98318.22;5139221;23;20581;-90
2022/10/20 04:01:45;;;;;;;16.67;11.80;;;;;;;12.78;96.67;98315.81;5111963;23;20614;-89
2022/10/20 04:03:48;;;;;;;15.33;11.37;;;;;;;12.76;96.95;98321.16;5138166;23;20609;-91
2022/10/20 04:05:51;;;;;;;17.33;11.97;;;;;;;12.78;96.60;98321.06;5137158;23;20570;-91
2022/10/20 04:07:54;;;;;;;17.40;12.93;;;;;;;12.79;96.20;98318.31;5113525;23;20931;-90
2022/10/20 04:10:00;;;;;;;15.03;11.70;;;;;;;12.78;96.41;98310.59;5112220;23;20601;-90
2022/10/20 04:12:05;;;;;;;18.17;11.97;;;;;;;12.76;95.99;98304.59;5112605;23;20578;-94
2022/10/20 04:14:08;;;;;;;16.93;11.30;;;;;;;12.74;97.31;98299.47;5111802;23;21211;-89
2022/10/20 04:16:11;;;;;;;13.90;10.80;;;;;;;12.71;96.22;98294.47;5113534;23;20582;-89
2022/10/20 04:18:14;;;;;;;22.20;12.33;;;;;;;12.66;96.62;98285.31;5113862;23;20657;-89
2022/10/20 04:20:17;;;;;;;17.33;11.63;;;;;;;12.57;96.83;98274.66;5138258;23;20672;-88
2022/10/20 04:22:20;;;;;;;18.03;11.83;;;;;;;12.56;98.29;98271.22;5137255;23;20573;-91
2022/10/20 04:24:23;;;;;;;18.90;12.00;;;;;;;12.49;97.58;98277.84;5112547;23;20574;-92
2022/10/20 04:26:26;;;;;;;19.27;12.30;;;;;;;12.48;97.62;98272.72;5140499;23;20569;-91
2022/10/20 04:28:31;;;;;;;19.97;11.67;;;;;;;12.47;99.06;98278.91;5138493;23;21085;-90
2022/10/20 04:30:34;;;;;;;19.50;12.63;;;;;;;12.46;98.80;98277.22;5112836;23;20617;-90
2022/10/20 04:32:37;;;;;;;22.00;14.37;;;;;;;12.48;97.88;98280.56;5114413;23;20601;-90
2022/10/20 04:34:40;;;;;;;18.60;12.50;;;;;;;12.51;98.36;98281.19;5137760;23;20596;-91
2022/10/20 04:36:43;;;;;;;19.97;13.00;;;;;;;12.54;99.34;98274.88;5141361;23;20624;-89
2022/10/20 04:38:46;;;;;;;20.33;12.70;;;;;;;12.54;99.63;98267.88;5138397;23;20938;-89
2022/10/20 04:40:54;;;;;;;18.97;13.17;;;;;;;12.54;99.47;98269.66;5139024;23;21134;-90
2022/10/20 04:43:00;;;;;;;20.13;13.73;;;;;;;12.57;100.00;98264.19;5138097;23;20663;-92
2022/10/20 04:45:05;;;;;;;22.83;13.83;;;;;;;12.61;99.09;98276.13;5113960;23;20630;-91
2022/10/20 04:47:08;;;;;;;19.57;13.40;;;;;;;12.66;99.97;98274.84;5136677;23;20643;-90
2022/10/20 04:49:11;;;;;;;20.40;13.77;;;;;;;12.69;99.21;98275.44;5137920;23;20581;-90
2022/10/20 04:51:15;;;;;;;19.57;13.80;;;;;;;12.74;98.65;98278.53;5137901;23;20720;-91
2022/10/20 04:53:18;;;;;;;21.83;14.00;;;;;;;12.75;98.64;98277.59;5138802;23;20632;-91
2022/10/20 04:55:21;;;;;;;17.73;13.20;;;;;;;12.79;98.52;98279.06;5138506;23;20617;-90
2022/10/20 04:57:24;;;;;;;19.20;13.77;;;;;;;12.84;98.96;98279.56;5140134;23;20573;-90
2022/10/20 04:59:27;;;;;;;21.53;14.00;;;;;;;12.88;99.58;98275.75;5113796;23;20710;-89
2022/10/20 05:01:32;;;;;;;21.03;13.20;;;;;;;12.91;99.38;98282.56;5138408;23;20585;-90
2022/10/20 05:03:36;;;;;;;21.10;15.13;;;;;;;12.94;99.40;98279.72;5137817;23;20617;-91
2022/10/20 05:05:39;;;;;;;19.00;14.23;;;;;;;12.97;100.00;98276.88;5138103;23;20584;-90
2022/10/20 05:07:42;;;;;;;23.73;14.63;;;;;;;12.98;99.33;98268.91;5138768;23;20629;-91
2022/10/20 05:09:45;;;;;;;20.87;13.70;;;;;;;13.01;99.80;98273.09;5114719;23;20579;-91
2022/10/20 05:11:48;;;;;;;23.20;14.47;;;;;;;13.03;100.00;98268.56;5114198;23;20570;-89
2022/10/20 05:13:51;;;;;;;22.93;14.30;;;;;;;13.03;99.69;98269.38;5113805;23;20946;-91
2022/10/20 05:15:54;;;;;;;24.27;15.00;;;;;;;13.02;99.38;98267.75;5113161;23;20647;-91
2022/10/20 05:17:59;;;;;;;21.93;14.93;;;;;;;13.03;99.58;98261.53;5138662;23;20588;-90
2022/10/20 05:20:02;;;;;;;24.37;15.50;;;;;;;13.05;99.62;98262.28;5113175;23;20582;-89
2022/10/20 05:22:05;;;;;;;23.43;14.37;;;;;;;13.06;99.93;98265.72;5138085;23;20573;-90
2022/10/20 05:24:10;;;;;;;21.90;15.13;;;;;;;13.04;99.33;98254.53;5139820;23;20605;-89
2022/10/20 05:26:18;;;;;;;23.10;13.60;;;;;;;13.03;99.12;98253.66;5113503;23;20583;-90
2022/10/20 05:28:21;;;;;;;24.27;14.20;;;;;;;13.02;100.00;98257.25;5112821;23;20613;-91
2022/10/20 05:30:24;;;;;;;22.03;14.67;;;;;;;13.01;99.99;98244.28;5137642;23;20586;-90
2022/10/20 05:32:28;;;;;;;22.20;14.30;;;;;;;13.00;99.40;98245.22;5113902;23;20581;-89
2022/10/20 05:34:32;;;;;;;23.90;15.10;;;;;;;12.99;100.00;98249.63;5136309;23;20595;-86
2022/10/20 05:36:35;;;;;;;23.60;13.77;;;;;;;12.97;99.96;98248.06;5109765;23;20583;-92
2022/10/20 05:38:39;;;;;;;17.33;13.00;;;;;;;12.94;99.53;98243.88;5136802;23;21411;-91
2022/10/20 05:40:42;;;;;;;19.73;13.43;;;;;;;12.96;99.54;98236.78;5110843;23;20605;-93
2022/10/20 05:42:45;;;;;;;17.60;12.97;;;;;;;12.98;99.46;98240.09;5112195;23;20618;-91
2022/10/20 05:44:48;;;;;;;21.70;13.57;;;;;;;12.98;100.00;98232.25;5136504;23;20636;-91
2022/10/20 05:46:52;;;;;;;19.53;14.10;;;;;;;12.98;99.80;98234.03;5142094;23;21181;-95
2022/10/20 05:48:57;;;;;;;19.83;13.63;;;;;;;12.97;100.00;98240.22;5141353;23;20615;-94
2022/10/20 05:51:09;;;;;;;20.50;14.57;;;;;;;12.93;99.69;98231.78;5113537;23;20631;-94
2022/10/20 05:53:16;;;;;;;19.60;13.67;;;;;;;12.95;100.00;98235.09;5139486;23;20616;-94
2022/10/20 05:55:20;;;;;;;17.33;13.20;;;;;;;12.94;100.00;98232.59;5139801;23;21134;-96
2022/10/20 05:57:23;;;;;;;23.37;14.43;;;;;;;12.93;100.00;98218.69;5138595;23;21317;-94
2022/10/20 05:59:26;;;;;;;19.50;13.10;;;;;;;12.96;100.00;98223.69;5138195;23;20601;-94
2022/10/20 06:01:38;;;;;;;17.03;13.00;;;;;;;12.93;100.00;98217.81;5140469;23;20609;-94
2022/10/20 06:03:42;;;;;;;22.77;14.30;;;;;;;12.94;99.82;98230.81;5139299;23;20664;-94
2022/10/20 06:05:45;;;;;;;19.03;13.20;;;;;;;12.96;100.00;98226.31;5139858;23;20585;-95
2022/10/20 06:07:50;;;;;;;15.70;12.20;;;;;;;12.96;99.73;98223.69;5139913;23;20919;-91
2022/10/20 06:09:54;;;;;;;17.37;13.40;;;;;;;12.99;100.00;98223.44;5119124;23;20690;-94
2022/10/20 06:11:57;;;;;;;17.57;13.13;;;;;;;13.06;100.00;98229.06;5119639;23;20574;-96
2022/10/20 06:14:01;;;;;;;20.47;12.77;;;;;;;13.05;99.41;98225.63;5114494;23;20612;-93
2022/10/20 06:16:08;;;;;;;19.80;12.67;;;;;;;13.04;99.82;98216.06;5117634;23;21045;-93
2022/10/20 06:18:11;;;;;;;17.80;12.57;;;;;;;13.08;99.67;98220.13;5118001;23;20577;-95
2022/10/20 06:20:15;;;;;;;17.87;12.90;;;;;;;13.15;100.00;98230.97;5116720;23;20582;-95
2022/10/20 06:22:18;;;;;;;16.67;12.47;;;;;;;13.13;99.40;98222.41;5142062;23;20580;-95
2022/10/20 06:24:23;;;;;;;19.50;12.53;;;;;;;13.19;99.61;98228.00;5116076;23;21137;-92
2022/10/20 06:26:31;;;;;;;15.30;11.50;;;;;;;13.21;99.68;98231.31;5113987;23;20624;-92
2022/10/20 06:28:36;;;;;;;14.53;11.97;;;;;;;13.23;99.61;98216.34;5113914;23;20624;-93
2022/10/20 06:30:39;;;;;;;16.87;12.47;;;;;;;13.25;99.37;98227.53;5138832;23;20577;-93
2022/10/20 06:32:42;;;;;;;14.10;11.40;;;;;;;13.25;100.00;98227.53;5138197;23;21357;-91
2022/10/20 06:34:45;;;;;;;15.87;11.40;;;;;;;13.24;100.00;98236.34;5137356;23;20581;-92
2022/10/20 06:36:48;;;;;;;14.20;11.20;;;;;;;13.29;99.86;98253.38;5112738;23;20572;-91
2022/10/20 06:38:53;;;;;;;12.90;10.83;;;;;;;13.33;99.57;98252.16;5135328;23;20577;-91
2022/10/20 06:41:01;;;;;;;11.83;10.10;;;;;;;13.39;98.86;98256.13;5137411;23;20565;-91
2022/10/20 06:43:04;;;;;;;14.47;11.23;;;;;;;13.41;99.90;98254.22;5137428;23;20561;-92
2022/10/20 06:45:08;;;;;;;13.77;11.23;;;;;;;13.45;99.44;98256.47;5138000;23;20602;-91
2022/10/20 06:47:13;;;;;;;15.17;10.50;;;;;;;13.47;98.81;98251.97;5113764;23;20591;-91
2022/10/20 06:49:16;;;;;;;13.30;11.03;;;;;;;13.49;100.00;98254.47;5113510;23;20577;-92
2022/10/20 06:51:20;;;;;;;13.57;10.20;;;;;;;13.52;99.06;98246.38;5138585;23;21193;-91
2022/10/20 06:53:24;;;;;;;13.53;10.03;;;;;;;13.57;99.57;98249.47;5113505;23;20565;-92
2022/10/20 06:55:27;;;;;;;13.70;10.50;;;;;;;13.59;98.91;98248.41;5139856;23;21056;-92
2022/10/20 06:57:32;;;;;;;15.17;10.10;;;;;;;13.65;98.91;98251.38;5138433;23;20569;-92
2022/10/20 06:59:37;;;;;;;14.00;10.67;;;;;;;13.69;98.75;98244.91;5136727;23;20581;-93
2022/10/20 07:01:44;;;;;;;14.47;10.20;;;;;;;13.73;99.14;98243.72;5135179;23;21170;-94
2022/10/20 07:03:48;;;;;;;12.07;9.80;;;;;;;13.74;98.84;98237.56;5110705;23;21149;-94
2022/10/20 07:05:51;;;;;;;12.23;9.17;;;;;;;13.76;99.10;98230.38;5135476;23;20613;-94
2022/10/20 07:07:58;;;;;;;11.70;9.60;;;;;;;13.85;98.26;98231.47;5112521;23;21168;-93
2022/10/20 07:10:01;;;;;;;11.90;9.90;;;;;;;13.87;98.60;98227.75;5111333;23;20700;-94
2022/10/20 07:12:05;;;;;;;12.33;9.40;;;;;;;13.94;97.82;98231.56;5136345;23;20652;-93
2022/10/20 07:14:10;;;;;;;12.50;9.10;;;;;;;14.05;98.31;98236.81;5136190;23;20581;-93
2022/10/20 07:16:14;;;;;;;11.83;9.67;;;;;;;14.22;98.42;98239.75;5137601;23;20951;-94
2022/10/20 07:18:17;;;;;;;11.80;9.20;;;;;;;14.35;98.00;98244.84;5139676;23;20580;-93
2022/10/20 07:20:20;;;;;;;10.60;8.80;;;;;;;14.50;96.69;98247.06;5114166;23;21193;-93
2022/10/20 07:22:23;;;;;;;10.50;9.03;;;;;;;14.62;96.27;98246.06;5139504;23;20581;-90
2022/10/20 07:24:27;;;;;;;11.77;9.10;;;;;;;14.79;96.47;98258.63;5138822;23;20558;-91
2022/10/20 07:26:32;;;;;;;9.40;7.80;;;;;;;14.95;95.45;98259.88;5139244;23;21176;-91
2022/10/20 07:28:36;;;;;;;9.47;7.93;;;;;;;15.05;95.19;98254.66;5114084;23;20586;-91
2022/10/20 07:30:41;;;;;;;10.33;8.30;;;;;;;15.13;94.22;98253.91;5114617;23;20616;-91
2022/10/20 07:32:44;;;;;;;10.30;8.20;;;;;;;15.22;95.67;98254.97;5139439;23;20577;-91
2022/10/20 07:34:47;;;;;;;9.57;8.07;;;;;;;15.31;94.36;98256.81;5139336;23;20570;-91
2022/10/20 07:36:51;;;;;;;11.27;8.90;;;;;;;15.45;92.87;98259.09;5141105;23;20943;-91
2022/10/20 07:38:55;;;;;;;9.83;7.97;;;;;;;15.63;92.55;98251.28;5113305;23;20634;-90
2022/10/20 07:41:01;;;;;;;12.03;7.80;;;;;;;15.82;92.33;98240.06;5139247;23;20625;-91
2022/10/20 07:43:04;;;;;;;10.10;7.97;;;;;;;15.95;92.06;98246.75;5111862;23;20588;-91
2022/10/20 07:45:08;;;;;;;10.90;8.17;;;;;;;16.12;90.61;98249.53;5136581;23;20628;-91
2022/10/20 07:47:13;;;;;;;8.30;7.50;;;;;;;16.23;91.33;98256.53;5112953;23;20599;-91
2022/10/20 07:49:16;;;;;;;9.27;7.60;;;;;;;16.41;88.72;98260.19;5113416;23;20638;-91
2022/10/20 07:51:39;;;;;;;9.30;7.37;;;;;;;16.51;89.71;98265.31;5112852;23;20593;-90
2022/10/20 07:53:42;;;;;;;8.17;7.30;;;;;;;16.58;89.07;98262.94;5135962;23;20964;-90
2022/10/20 07:55:45;;;;;;;7.87;6.50;;;;;;;16.61;87.99;98260.91;5161662;23;20624;-90
2022/10/20 07:57:48;;;;;;;8.30;7.07;;;;;;;16.62;87.13;98257.28;5111284;23;20624;-92
2022/10/20 07:59:51;;;;;;;9.37;7.43;;;;;;;16.70;88.12;98252.16;5137524;23;20576;-91
2022/10/20 08:01:55;;;;;;;8.90;7.40;;;;;;;16.91;89.61;98266.00;5113020;23;21032;-90
2022/10/20 08:04:03;;;;;;;10.00;7.00;;;;;;;17.08;87.77;98262.69;5136810;23;20684;-90
2022/10/20 08:06:06;;;;;;;8.47;7.00;;;;;;;17.16;86.58;98249.63;5139497;23;20611;-89
2022/10/20 08:08:10;;;;;;;7.00;6.30;;;;;;;17.13;86.12;98248.09;5138590;23;20612;-91
2022/10/20 08:10:13;;;;;;;8.57;6.70;;;;;;;17.18;86.54;98250.31;5138929;23;20592;-92
2022/10/20 08:12:16;;;;;;;6.87;5.90;;;;;;;17.19;85.78;98250.19;5138160;23;20575;-92
2022/10/20 08:14:21;;;;;;;7.17;6.23;;;;;;;17.10;86.38;98247.56;5138520;23;20595;-92
2022/10/20 08:16:24;;;;;;;9.47;7.27;;;;;;;16.99;86.01;98242.44;5139125;23;20576;-92
2022/10/20 08:18:35;;;;;;;8.40;7.50;;;;;;;16.92;86.10;98240.50;5138544;23;20599;-96
2022/10/20 08:21:08;;;;;;;8.60;7.10;;;;;;;16.85;86.08;98234.13;5100016;23;20601;-93
2022/10/20 08:23:11;;;;;;;7.07;6.20;;;;;;;16.83;86.88;98234.25;5112592;23;20570;-94
2022/10/20 08:25:15;;;;;;;7.87;6.70;;;;;;;16.87;87.19;98227.75;5109575;23;20621;-93
2022/10/20 08:27:18;;;;;;;7.50;6.70;;;;;;;17.03;87.00;98228.84;5136489;23;20579;-92
2022/10/20 08:29:21;;;;;;;7.50;6.40;;;;;;;17.22;86.46;98218.28;5110680;23;21569;-94
2022/10/20 08:31:24;;;;;;;8.20;6.40;;;;;;;17.36;85.88;98222.28;5139069;23;20618;-93
2022/10/20 08:33:28;;;;;;;7.23;6.00;;;;;;;17.50;86.08;98235.84;5114148;23;21139;-94
2022/10/20 08:35:31;;;;;;;9.33;7.10;;;;;;;17.60;86.40;98223.44;5138311;23;20584;-93
2022/10/20 08:37:35;;;;;;;6.47;5.87;;;;;;;17.71;85.82;98233.81;5113885;23;20573;-91
2022/10/20 08:39:39;;;;;;;9.17;7.60;;;;;;;17.79;85.10;98229.47;5137670;23;20584;-92
2022/10/20 08:41:44;;;;;;;12.03;7.40;;;;;;;17.81;84.58;98227.53;5113779;23;20574;-92
2022/10/20 08:44:08;;;;;;;8.10;6.87;;;;;;;17.79;84.33;98224.19;5137474;23;20571;-92
2022/10/20 08:46:13;;;;;;;9.50;7.20;;;;;;;17.81;85.02;98227.53;5138181;23;20604;-93
2022/10/20 08:48:20;;;;;;;7.80;7.00;;;;;;;17.84;84.08;98221.94;5138193;23;20576;-91
2022/10/20 08:50:26;;;;;;;8.47;7.07;;;;;;;17.85;83.83;98206.97;5137332;23;20586;-93
2022/10/20 08:52:29;;;;;;;8.90;6.60;;;;;;;17.85;83.06;98202.50;5113504;23;21125;-92
2022/10/20 08:54:34;;;;;;;7.13;6.43;;;;;;;17.91;83.24;98215.13;5137821;23;20667;-93
2022/10/20 08:56:37;;;;;;;6.80;6.10;;;;;;;17.94;83.27;98212.19;5112648;23;20589;-93
2022/10/20 08:58:42;;;;;;;7.00;6.20;;;;;;;17.99;82.94;98220.50;5137888;23;21312;-93
2022/10/20 09:00:46;;;;;;;8.30;7.33;;;;;;;18.03;83.03;98221.88;5112806;23;21630;-93
2022/10/20 09:02:50;;;;;;;7.83;6.80;;;;;;;18.06;84.29;98226.84;5163042;23;20568;-93
2022/10/20 09:04:56;;;;;;;7.43;6.73;;;;;;;18.12;85.00;98221.00;5112609;23;20569;-94
2022/10/20 09:07:01;;;;;;;9.50;5.97;;;;;;;18.22;84.47;98221.78;5113639;23;20606;-94
2022/10/20 09:09:04;;;;;;;9.30;6.80;;;;;;;18.28;85.50;98227.31;5136674;23;20640;-93
2022/10/20 09:11:13;;;;;;;6.43;5.40;;;;;;;18.41;86.60;98229.59;5111557;23;20596;-92
2022/10/20 09:13:22;;;;;;;7.43;6.63;;;;;;;18.50;84.52;98214.47;5110919;23;20565;-93
2022/10/20 09:15:26;;;;;;;8.43;6.83;;;;;;;18.57;82.32;98225.31;5112635;23;20580;-93
2022/10/20 09:17:30;;;;;;;8.47;7.23;;;;;;;18.64;82.78;98223.69;5137352;23;20624;-95
2022/10/20 09:19:34;;;;;;;7.93;6.90;;;;;;;18.70;82.37;98233.66;5115517;23;20594;-94
2022/10/20 09:21:38;;;;;;;7.20;6.43;;;;;;;18.79;83.04;98238.88;5113704;23;20588;-94
2022/10/20 09:23:43;;;;;;;7.90;6.77;;;;;;;18.84;82.73;98251.63;5140367;23;20584;-92
2022/10/20 09:25:47;;;;;;;8.13;6.40;;;;;;;18.79;81.94;98240.69;5139843;23;20570;-93
2022/10/20 09:27:52;;;;;;;8.30;7.00;;;;;;;18.84;81.35;98241.91;5164587;23;20552;-94
2022/10/20 09:29:55;;;;;;;7.30;6.60;;;;;;;18.96;82.10;98243.34;5114694;23;21397;-94
2022/10/20 09:31:58;;;;;;;7.20;6.50;;;;;;;19.07;81.99;98238.66;5140633;23;20582;-93
2022/10/20 09:34:22;;;;;;;8.53;7.20;;;;;;;19.25;83.59;98236.81;5115056;23;20618;-94
2022/10/20 09:36:30;;;;;;;12.60;7.00;;;;;;;19.40;81.81;98243.22;5141562;23;21012;-95
2022/10/20 09:38:34;;;;;;;6.30;5.50;;;;;;;19.46;81.85;98239.94;5115002;23;21106;-95
2022/10/20 09:40:43;;;;;;;8.23;6.20;;;;;;;19.43;80.62;98233.13;5139540;23;20607;-92
2022/10/20 09:42:49;;;;;;;10.27;5.77;;;;;;;19.46;81.56;98234.66;5139761;23;20573;-93
2022/10/20 09:44:57;;;;;;;7.70;5.70;;;;;;;19.52;82.82;98224.25;5113193;23;20636;-92